createdAt,value
2018-11-20T00:02:00.293Z,77.44
2018-11-20T00:04:37.858Z,76.60
2018-11-20T00:07:31.415Z,76.91
2018-11-20T00:10:08.023Z,76.55
2018-11-20T00:14:44.495Z,76.87
2018-11-20T00:19:21.149Z,75.65
2018-11-20T00:22:03.716Z,75.25
2018-11-20T00:24:39.071Z,75.50
2018-11-20T00:27:16.423Z,75.10
2018-11-20T00:30:03.881Z,75.17
2018-11-20T00:32:37.434Z,75.21
2018-11-20T00:37:17.735Z,74.87
2018-11-20T00:39:51.277Z,75.08
2018-11-20T00:42:28.073Z,74.41
2018-11-20T00:45:01.617Z,75.28
2018-11-20T00:47:38.116Z,74.70
2018-11-20T00:51:19.054Z,74.81
2018-11-20T00:54:03.509Z,74.62
2018-11-20T00:57:16.822Z,74.59
2018-11-20T00:59:53.085Z,74.43
2018-11-20T01:02:35.157Z,74.07
2018-11-20T01:05:09.557Z,74.59
2018-11-20T01:07:43.171Z,74.25
2018-11-20T01:10:16.883Z,73.70
2018-11-20T01:12:50.593Z,73.37
2018-11-20T01:15:24.182Z,72.61
2018-11-20T01:17:56.767Z,73.27
2018-11-20T01:20:31.332Z,73.30
2018-11-20T01:23:04.999Z,72.35
2018-11-20T01:25:38.777Z,72.32
2018-11-20T01:29:14.470Z,72.32
2018-11-20T01:31:47.983Z,71.58
2018-11-20T01:34:52.368Z,71.48
2018-11-20T01:37:26.869Z,71.04
2018-11-20T01:40:02.441Z,71.21
2018-11-20T01:42:35.948Z,71.10
2018-11-20T01:45:09.513Z,71.57
2018-11-20T01:48:45.001Z,70.18
2018-11-20T01:51:21.588Z,70.40
2018-11-20T01:54:14.206Z,71.43
2018-11-20T01:56:47.809Z,70.65
2018-11-20T02:01:22.454Z,71.13
2018-11-20T02:05:57.801Z,70.98
2018-11-20T02:08:38.353Z,70.73
2018-11-20T02:11:10.938Z,71.25
2018-11-20T02:15:50.263Z,71.27
2018-11-20T02:18:26.722Z,71.13
2018-11-20T02:21:02.921Z,71.56
2018-11-20T02:23:42.435Z,71.26
2018-11-20T02:26:19.032Z,71.39
2018-11-20T02:28:52.565Z,71.74
2018-11-20T02:31:26.755Z,71.85
2018-11-20T02:34:30.136Z,71.56
2018-11-20T02:37:13.583Z,71.45
2018-11-20T02:39:47.243Z,71.97
2018-11-20T02:42:20.651Z,71.73
2018-11-20T02:44:56.216Z,71.57
2018-11-20T02:47:30.077Z,71.94
2018-11-20T02:50:02.661Z,71.94
2018-11-20T02:52:35.239Z,72.33
2018-11-20T02:55:10.982Z,71.74
2018-11-20T02:57:46.483Z,72.00
2018-11-20T03:00:20.183Z,72.20
2018-11-20T03:02:53.815Z,72.40
2018-11-20T03:05:31.183Z,72.66
2018-11-20T03:08:06.653Z,72.39
2018-11-20T03:10:40.276Z,72.72
2018-11-20T03:13:14.005Z,72.75
2018-11-20T03:15:50.517Z,73.07
2018-11-20T03:18:25.928Z,73.10
2018-11-20T03:20:58.495Z,72.79
2018-11-20T03:23:35.876Z,73.18
2018-11-20T03:26:12.875Z,73.18
2018-11-20T03:30:52.946Z,73.08
2018-11-20T03:33:28.389Z,73.14
2018-11-20T03:36:04.795Z,73.85
2018-11-20T03:39:12.364Z,73.57
2018-11-20T03:41:46.089Z,74.01
2018-11-20T03:44:24.691Z,72.91
2018-11-20T03:46:58.206Z,73.26
2018-11-20T03:49:31.811Z,73.33
2018-11-20T03:52:05.247Z,73.09
2018-11-20T03:56:39.708Z,73.09
2018-11-20T03:59:17.743Z,73.60
2018-11-20T04:03:52.400Z,73.57
2018-11-20T04:06:44.812Z,73.54
2018-11-20T04:09:18.506Z,73.50
2018-11-20T04:13:56.191Z,73.28
2018-11-20T04:17:31.669Z,72.70
2018-11-20T04:20:05.424Z,72.81
2018-11-20T04:22:41.170Z,72.92
2018-11-20T04:25:29.795Z,72.96
2018-11-20T04:28:03.358Z,72.60
2018-11-20T04:30:47.942Z,72.40
2018-11-20T04:33:34.431Z,72.68
2018-11-20T04:36:08.130Z,72.17
2018-11-20T04:38:43.564Z,71.78
2018-11-20T04:41:22.176Z,71.94
2018-11-20T04:44:30.831Z,72.42
2018-11-20T04:47:03.462Z,72.47
2018-11-20T04:49:44.006Z,71.57
2018-11-20T04:52:32.406Z,71.88
2018-11-20T04:55:12.695Z,71.32
2018-11-20T04:58:16.167Z,71.20
2018-11-20T05:01:47.613Z,71.08
2018-11-20T05:06:25.922Z,70.92
2018-11-20T05:10:03.366Z,70.59
2018-11-20T05:13:38.883Z,70.70
2018-11-20T05:16:26.354Z,70.41
2018-11-20T05:18:59.953Z,70.52
2018-11-20T05:21:33.423Z,69.95
2018-11-20T05:24:06.966Z,69.20
2018-11-20T05:26:45.493Z,69.95
2018-11-20T05:29:25.763Z,69.66
2018-11-20T05:31:59.350Z,70.31
2018-11-20T05:34:38.910Z,69.71
2018-11-20T05:37:12.433Z,70.37
2018-11-20T05:39:55.766Z,70.11
2018-11-20T05:42:31.258Z,70.42
2018-11-20T05:46:04.792Z,69.70
2018-11-20T05:50:44.185Z,70.93
2018-11-20T05:55:20.593Z,69.54
2018-11-20T05:59:55.241Z,69.87
2018-11-20T06:02:28.948Z,69.67
2018-11-20T06:05:01.487Z,69.55
2018-11-20T06:07:35.091Z,69.62
2018-11-20T06:10:08.817Z,69.51
2018-11-20T06:12:42.502Z,70.09
2018-11-20T06:17:17.153Z,69.54
2018-11-20T06:19:50.673Z,70.00
2018-11-20T06:22:24.111Z,70.42
2018-11-20T06:24:57.846Z,70.74
2018-11-20T06:28:04.292Z,70.30
2018-11-20T06:30:38.031Z,70.55
2018-11-20T06:33:22.416Z,70.31
2018-11-20T06:35:56.525Z,70.90
2018-11-20T06:38:30.667Z,71.27
2018-11-20T06:43:07.652Z,71.20
2018-11-20T06:45:43.186Z,70.73
2018-11-20T06:48:21.720Z,71.31
2018-11-20T06:51:03.492Z,71.47
2018-11-20T06:53:55.174Z,71.10
2018-11-20T06:56:31.572Z,70.16
2018-11-20T06:59:07.814Z,70.44
2018-11-20T07:01:47.754Z,70.38
2018-11-20T07:04:21.473Z,70.06
2018-11-20T07:06:56.745Z,70.35
2018-11-20T07:10:36.304Z,69.88
2018-11-20T07:13:23.090Z,69.99
2018-11-20T07:16:35.670Z,70.12
2018-11-20T07:19:11.028Z,69.28
2018-11-20T07:21:51.727Z,69.90
2018-11-20T07:24:29.119Z,70.02
2018-11-20T07:27:06.622Z,70.42
2018-11-20T07:29:43.409Z,69.83
2018-11-20T07:32:17.078Z,69.47
2018-11-20T07:34:55.681Z,69.14
2018-11-20T07:37:34.597Z,68.78
2018-11-20T07:40:10.135Z,69.47
2018-11-20T07:42:43.812Z,69.55
2018-11-20T07:47:18.519Z,69.30
2018-11-20T07:50:55.195Z,69.16
2018-11-20T07:53:42.745Z,69.49
2018-11-20T07:58:20.182Z,68.76
2018-11-20T08:00:53.879Z,68.82
2018-11-20T08:03:32.413Z,69.60
2018-11-20T08:06:06.012Z,69.04
2018-11-20T08:10:40.595Z,69.48
2018-11-20T08:13:22.165Z,69.21
2018-11-20T08:15:55.787Z,69.24
2018-11-20T08:18:29.312Z,68.98
2018-11-20T08:21:11.797Z,68.55
2018-11-20T08:25:46.878Z,68.25
2018-11-20T08:28:20.464Z,68.46
2018-11-20T08:30:54.412Z,68.48
2018-11-20T08:33:27.747Z,68.33
2018-11-20T08:38:03.730Z,68.18
2018-11-20T08:42:40.268Z,68.56
2018-11-20T08:45:13.901Z,68.23
2018-11-20T08:47:57.471Z,68.46
2018-11-20T08:52:31.898Z,68.49
2018-11-20T08:55:05.589Z,67.90
2018-11-20T08:59:41.124Z,68.34
2018-11-20T09:02:15.289Z,68.25
2018-11-20T09:05:04.608Z,68.27
2018-11-20T09:09:40.226Z,68.57
2018-11-20T09:12:13.788Z,68.50
2018-11-20T09:16:53.345Z,67.69
2018-11-20T09:19:59.759Z,68.69
2018-11-20T09:22:48.035Z,68.14
2018-11-20T09:25:21.551Z,69.08
2018-11-20T09:28:15.041Z,68.27
2018-11-20T09:32:51.690Z,68.23
2018-11-20T09:35:27.335Z,68.45
2018-11-20T09:38:04.767Z,68.84
2018-11-20T09:40:46.673Z,68.76
2018-11-20T09:43:20.512Z,68.57
2018-11-20T09:46:02.970Z,68.52
2018-11-20T09:48:38.433Z,68.88
2018-11-20T09:51:17.825Z,68.56
2018-11-20T09:53:50.417Z,68.27
2018-11-20T09:56:26.602Z,68.27
2018-11-20T09:59:07.152Z,68.68
2018-11-20T10:03:46.485Z,69.03
2018-11-20T10:06:25.864Z,67.79
2018-11-20T10:08:59.486Z,68.73
2018-11-20T10:11:33.032Z,67.85
2018-11-20T10:14:15.706Z,68.29
2018-11-20T10:16:49.067Z,67.55
2018-11-20T10:19:22.815Z,67.74
2018-11-20T10:21:56.357Z,68.10
2018-11-20T10:26:36.307Z,68.34
2018-11-20T10:31:20.823Z,67.79
2018-11-20T10:33:54.503Z,68.03
2018-11-20T10:36:36.005Z,68.58
2018-11-20T10:41:14.520Z,67.87
2018-11-20T10:43:50.969Z,68.09
2018-11-20T10:46:25.431Z,67.70
2018-11-20T10:49:10.020Z,68.31
2018-11-20T10:51:45.448Z,68.17
2018-11-20T10:54:54.078Z,68.15
2018-11-20T10:57:27.976Z,67.81
2018-11-20T11:00:01.576Z,67.76
2018-11-20T11:02:35.172Z,68.14
2018-11-20T11:05:08.909Z,68.29
2018-11-20T11:07:42.689Z,68.37
2018-11-20T11:10:16.569Z,67.75
2018-11-20T11:12:54.053Z,68.39
2018-11-20T11:15:32.668Z,68.07
2018-11-20T11:20:09.435Z,67.79
2018-11-20T11:22:44.939Z,68.45
2018-11-20T11:27:21.552Z,67.80
2018-11-20T11:29:55.486Z,67.46
2018-11-20T11:32:34.954Z,68.38
2018-11-20T11:35:10.583Z,67.94
2018-11-20T11:38:48.329Z,67.47
2018-11-20T11:43:28.218Z,67.43
2018-11-20T11:48:05.847Z,67.10
2018-11-20T11:50:39.563Z,67.80
2018-11-20T11:53:13.134Z,67.79
2018-11-20T11:57:10.336Z,68.02
2018-11-20T12:00:14.248Z,67.81
2018-11-20T12:03:17.213Z,67.99
2018-11-20T12:06:11.202Z,67.92
2018-11-20T12:09:00.727Z,67.44
2018-11-20T12:11:48.933Z,67.60
2018-11-20T12:14:35.424Z,67.71
2018-11-20T12:17:26.814Z,67.43
2018-11-20T12:20:21.249Z,68.05
2018-11-20T12:23:14.807Z,67.02
2018-11-20T12:26:06.832Z,67.14
2018-11-20T12:28:46.458Z,67.83
2018-11-20T12:31:40.986Z,67.21
2018-11-20T12:34:39.807Z,67.41
2018-11-20T12:37:34.741Z,67.10
2018-11-20T12:40:38.268Z,67.54
2018-11-20T12:43:24.748Z,67.89
2018-11-20T12:46:26.907Z,67.82
2018-11-20T12:49:33.679Z,67.62
2018-11-20T12:52:33.474Z,67.83
2018-11-20T12:55:24.221Z,67.84
2018-11-20T12:58:16.160Z,67.64
2018-11-20T13:00:58.980Z,67.97
2018-11-20T13:03:43.701Z,67.92
2018-11-20T13:06:34.975Z,67.83
2018-11-20T13:09:21.624Z,68.14
2018-11-20T13:12:18.161Z,68.21
2018-11-20T13:15:08.863Z,68.38
2018-11-20T13:18:00.473Z,68.75
2018-11-20T13:21:03.755Z,68.50
2018-11-20T13:23:51.135Z,69.01
2018-11-20T13:26:41.125Z,68.83
2018-11-20T13:29:28.153Z,68.73
2018-11-20T13:32:15.390Z,68.73
2018-11-20T13:35:02.706Z,69.04
2018-11-20T13:37:41.912Z,68.96
2018-11-20T13:41:15.365Z,69.31
2018-11-20T13:44:03.679Z,69.29
2018-11-20T13:46:52.446Z,69.32
2018-11-20T13:49:40.748Z,69.74
2018-11-20T13:52:22.568Z,69.78
2018-11-20T13:55:09.224Z,69.64
2018-11-20T13:57:55.666Z,69.94
2018-11-20T14:00:47.731Z,69.89
2018-11-20T14:03:47.894Z,70.38
2018-11-20T14:06:36.297Z,70.58
2018-11-20T14:09:25.121Z,70.33
2018-11-20T14:12:16.317Z,70.66
2018-11-20T14:15:02.683Z,71.05
2018-11-20T14:17:49.798Z,70.89
2018-11-20T14:20:40.805Z,70.67
2018-11-20T14:23:28.729Z,70.98
2018-11-20T14:26:17.873Z,71.57
2018-11-20T14:29:15.946Z,71.17
2018-11-20T14:32:03.337Z,71.05
2018-11-20T14:35:09.772Z,71.31
2018-11-20T14:38:07.286Z,71.88
2018-11-20T14:41:04.569Z,71.88
2018-11-20T14:43:51.807Z,71.69
2018-11-20T14:46:47.267Z,72.06
2018-11-20T14:49:44.856Z,72.14
2018-11-20T14:52:33.275Z,71.98
2018-11-20T14:55:28.066Z,72.30
2018-11-20T14:58:03.360Z,72.29
2018-11-20T15:01:04.687Z,72.39
2018-11-20T15:03:54.839Z,72.32
2018-11-20T15:06:43.495Z,72.20
2018-11-20T15:09:41.165Z,72.09
2018-11-20T15:12:28.141Z,71.99
2018-11-20T15:15:15.880Z,72.08
2018-11-20T15:18:07.201Z,72.20
2018-11-20T15:21:03.686Z,72.12
2018-11-20T15:23:50.826Z,72.43
2018-11-20T15:26:42.838Z,72.21
2018-11-20T15:29:31.488Z,71.82
2018-11-20T15:32:25.227Z,71.55
2018-11-20T15:35:31.721Z,71.73
2018-11-20T15:38:26.268Z,71.81
2018-11-20T15:41:13.137Z,71.61
2018-11-20T15:44:04.781Z,71.40
2018-11-20T15:47:02.535Z,71.19
2018-11-20T15:49:45.532Z,71.27
2018-11-20T15:52:37.732Z,71.41
2018-11-20T15:55:36.319Z,71.30
2018-11-20T15:58:28.226Z,71.27
2018-11-20T16:01:25.999Z,71.63
2018-11-20T16:04:16.919Z,71.05
2018-11-20T16:07:04.114Z,71.53
2018-11-20T16:09:41.005Z,71.39
2018-11-20T16:12:31.893Z,71.14
2018-11-20T16:15:31.786Z,70.66
2018-11-20T16:18:22.449Z,70.85
2018-11-20T16:21:20.010Z,70.84
2018-11-20T16:24:11.631Z,70.41
2018-11-20T16:27:14.877Z,70.84
2018-11-20T16:30:04.186Z,70.53
2018-11-20T16:32:50.952Z,69.86
2018-11-20T16:35:37.853Z,69.97
2018-11-20T16:38:38.413Z,69.92
2018-11-20T16:41:29.162Z,70.21
2018-11-20T16:44:20.186Z,69.94
2018-11-20T16:47:07.531Z,69.94
2018-11-20T16:49:48.825Z,70.12
2018-11-20T16:52:47.215Z,69.94
2018-11-20T16:55:35.901Z,70.33
2018-11-20T16:58:33.150Z,70.48
2018-11-20T17:01:17.133Z,70.40
2018-11-20T17:04:00.428Z,70.34
2018-11-20T17:06:46.445Z,70.22
2018-11-20T17:09:41.846Z,70.24
2018-11-20T17:12:31.540Z,70.59
2018-11-20T17:15:29.160Z,70.82
2018-11-20T17:18:07.727Z,70.77
2018-11-20T17:21:02.858Z,71.00
2018-11-20T17:23:50.070Z,71.07
2018-11-20T17:26:38.678Z,71.22
2018-11-20T17:29:32.619Z,71.23
2018-11-20T17:32:33.711Z,71.38
2018-11-20T17:35:21.528Z,71.62
2018-11-20T17:38:09.816Z,71.51
2018-11-20T17:40:50.982Z,71.91
2018-11-20T17:43:37.787Z,71.60
2018-11-20T17:46:20.579Z,72.10
2018-11-20T17:49:08.501Z,72.06
2018-11-20T17:51:56.220Z,72.08
2018-11-20T17:54:41.147Z,72.04
2018-11-20T17:57:27.735Z,72.24
2018-11-20T18:00:18.755Z,71.87
2018-11-20T18:02:58.283Z,72.35
2018-11-20T18:05:58.548Z,72.62
2018-11-20T18:08:45.260Z,72.40
2018-11-20T18:11:40.170Z,72.76
2018-11-20T18:14:28.972Z,72.77
2018-11-20T18:17:10.103Z,72.72
2018-11-20T18:19:57.983Z,72.49
2018-11-20T18:22:46.146Z,72.83
2018-11-20T18:25:49.458Z,73.11
2018-11-20T18:28:38.199Z,73.19
2018-11-20T18:31:35.710Z,73.48
2018-11-20T18:34:22.792Z,73.70
2018-11-20T18:37:13.366Z,73.37
2018-11-20T18:40:12.865Z,73.50
2018-11-20T18:43:13.594Z,73.44
2018-11-20T18:46:00.373Z,73.65
2018-11-20T18:48:54.975Z,73.46
2018-11-20T18:51:44.352Z,73.90
2018-11-20T18:54:35.353Z,73.61
2018-11-20T18:57:23.070Z,73.71
2018-11-20T19:00:30.324Z,73.59
2018-11-20T19:03:18.205Z,73.77
2018-11-20T19:06:12.970Z,73.44
2018-11-20T19:09:19.963Z,73.56
2018-11-20T19:12:24.983Z,73.28
2018-11-20T19:15:19.304Z,73.80
2018-11-20T19:18:05.883Z,74.14
2018-11-20T19:20:44.785Z,73.78
2018-11-20T19:23:34.018Z,73.63
2018-11-20T19:26:40.543Z,74.21
2018-11-20T19:29:27.465Z,74.08
2018-11-20T19:32:09.605Z,73.94
2018-11-20T19:35:17.179Z,74.13
2018-11-20T19:38:01.653Z,73.95
2018-11-20T19:40:55.469Z,73.88
2018-11-20T19:43:43.585Z,74.12
2018-11-20T19:46:30.572Z,73.91
2018-11-20T19:49:18.178Z,74.08
2018-11-20T19:52:18.954Z,73.91
2018-11-20T19:55:17.343Z,74.20
2018-11-20T19:58:16.657Z,74.35
2018-11-20T20:01:12.859Z,74.03
2018-11-20T20:03:59.665Z,74.38
2018-11-20T20:06:57.772Z,74.31
2018-11-20T20:09:44.752Z,74.07
2018-11-20T20:12:38.946Z,74.70
2018-11-20T20:15:30.432Z,74.66
2018-11-20T20:18:18.087Z,74.82
2018-11-20T20:21:05.723Z,75.31
2018-11-20T20:23:52.073Z,75.17
2018-11-20T20:26:58.373Z,75.35
2018-11-20T20:29:42.667Z,75.62
2018-11-20T20:32:48.999Z,75.99
2018-11-20T20:35:38.800Z,75.99
2018-11-20T20:38:33.491Z,76.13
2018-11-20T20:41:25.822Z,76.12
2018-11-20T20:44:12.672Z,76.31
2018-11-20T20:47:16.334Z,76.55
2018-11-20T20:50:07.995Z,76.51
2018-11-20T20:53:15.862Z,76.58
2018-11-20T20:56:02.336Z,76.53
2018-11-20T20:58:39.262Z,76.69
2018-11-20T21:01:27.906Z,76.82
2018-11-20T21:04:16.635Z,76.95
2018-11-20T21:07:04.247Z,76.69
2018-11-20T21:09:56.049Z,77.04
2018-11-20T21:12:43.269Z,77.01
2018-11-20T21:15:50.285Z,77.38
2018-11-20T21:18:32.025Z,77.37
2018-11-20T21:21:22.443Z,77.28
2018-11-20T21:24:17.171Z,77.16
2018-11-20T21:27:08.226Z,77.55
2018-11-20T21:29:55.024Z,77.58
2018-11-20T21:32:49.642Z,77.62
2018-11-20T21:35:36.356Z,77.53
2018-11-20T21:38:23.630Z,77.35
2018-11-20T21:41:24.506Z,77.40
2018-11-20T21:44:28.318Z,77.65
2018-11-20T21:47:14.087Z,77.76
2018-11-20T21:50:00.867Z,77.81
2018-11-20T21:52:47.671Z,78.02
2018-11-20T21:55:34.127Z,77.95
2018-11-20T21:58:22.321Z,77.78
2018-11-20T22:01:23.250Z,78.06
2018-11-20T22:04:24.513Z,77.74
2018-11-20T22:10:18.058Z,77.55
2018-11-20T22:13:15.793Z,77.59
2018-11-20T22:20:07.761Z,77.52
2018-11-20T22:23:42.086Z,77.81
2018-11-20T22:26:45.333Z,76.96
2018-11-20T22:29:23.269Z,77.30
2018-11-20T22:32:34.532Z,77.08
2018-11-20T22:46:18.085Z,76.33
2018-11-20T22:49:21.309Z,76.59
2018-11-20T22:52:09.954Z,76.78
2018-11-20T22:55:02.886Z,76.49
2018-11-20T22:58:08.788Z,76.49
2018-11-20T23:03:25.939Z,76.61
2018-11-20T23:06:21.810Z,76.18
2018-11-20T23:08:51.338Z,76.50
2018-11-20T23:11:29.789Z,76.07
2018-11-20T23:16:34.309Z,76.44
2018-11-20T23:19:03.985Z,76.10
2018-11-20T23:21:33.496Z,76.29
2018-11-20T23:24:06.177Z,76.36
2018-11-20T23:26:41.283Z,76.21
2018-11-20T23:29:11.384Z,76.00
2018-11-20T23:31:41.353Z,76.01
2018-11-20T23:34:11.082Z,76.13
2018-11-20T23:36:44.838Z,76.16
2018-11-20T23:39:16.914Z,75.75
2018-11-20T23:41:46.445Z,75.95
2018-11-20T23:44:16.263Z,75.88
2018-11-20T23:46:45.802Z,75.76
2018-11-20T23:49:15.784Z,75.74
2018-11-20T23:51:45.973Z,75.70
2018-11-20T23:54:14.480Z,75.61
2018-11-20T23:56:44.066Z,75.74
2018-11-20T23:59:13.305Z,75.82
